sensor_id;sensor_type;location;lat;lon;timestamp;P1;durP1;ratioP1;P2;durP2;ratioP2
36773;SDS011;22730;51.980;5.934;2023-08-06T00:01:06;2.53;;;2.33;;
36773;SDS011;22730;51.980;5.934;2023-08-06T00:03:32;2.55;;;2.45;;
36773;SDS011;22730;51.980;5.934;2023-08-06T00:05:58;2.40;;;2.30;;
36773;SDS011;22730;51.980;5.934;2023-08-06T00:08:24;2.70;;;2.50;;
36773;SDS011;22730;51.980;5.934;2023-08-06T00:10:52;2.00;;;1.90;;
36773;SDS011;22730;51.980;5.934;2023-08-06T00:13:20;2.13;;;2.03;;
36773;SDS011;22730;51.980;5.934;2023-08-06T00:15:46;2.40;;;2.30;;
36773;SDS011;22730;51.980;5.934;2023-08-06T00:18:12;2.63;;;2.53;;
36773;SDS011;22730;51.980;5.934;2023-08-06T00:20:41;3.25;;;3.05;;
36773;SDS011;22730;51.980;5.934;2023-08-06T00:23:09;3.08;;;2.20;;
36773;SDS011;22730;51.980;5.934;2023-08-06T00:25:37;2.78;;;2.35;;
36773;SDS011;22730;51.980;5.934;2023-08-06T00:28:03;2.85;;;2.65;;
36773;SDS011;22730;51.980;5.934;2023-08-06T00:30:28;3.00;;;2.80;;
36773;SDS011;22730;51.980;5.934;2023-08-06T00:32:54;2.60;;;2.50;;
36773;SDS011;22730;51.980;5.934;2023-08-06T00:35:21;2.72;;;2.53;;
36773;SDS011;22730;51.980;5.934;2023-08-06T00:37:46;2.60;;;2.50;;
36773;SDS011;22730;51.980;5.934;2023-08-06T00:40:12;3.72;;;2.13;;
36773;SDS011;22730;51.980;5.934;2023-08-06T00:42:41;1.42;;;1.42;;
36773;SDS011;22730;51.980;5.934;2023-08-06T00:47:36;2.38;;;2.20;;
36773;SDS011;22730;51.980;5.934;2023-08-06T00:50:09;2.13;;;2.03;;
36773;SDS011;22730;51.980;5.934;2023-08-06T00:52:35;1.73;;;1.63;;
36773;SDS011;22730;51.980;5.934;2023-08-06T00:55:01;1.92;;;1.83;;
36773;SDS011;22730;51.980;5.934;2023-08-06T00:57:28;3.30;;;3.10;;
36773;SDS011;22730;51.980;5.934;2023-08-06T00:59:54;4.32;;;3.42;;
36773;SDS011;22730;51.980;5.934;2023-08-06T01:02:20;3.35;;;3.08;;
36773;SDS011;22730;51.980;5.934;2023-08-06T01:04:46;2.88;;;2.75;;
36773;SDS011;22730;51.980;5.934;2023-08-06T01:07:24;3.00;;;2.80;;
36773;SDS011;22730;51.980;5.934;2023-08-06T01:15:58;2.30;;;2.10;;
36773;SDS011;22730;51.980;5.934;2023-08-06T01:18:26;2.47;;;2.38;;
36773;SDS011;22730;51.980;5.934;2023-08-06T01:20:51;2.30;;;2.20;;
36773;SDS011;22730;51.980;5.934;2023-08-06T01:23:20;2.45;;;2.35;;
36773;SDS011;22730;51.980;5.934;2023-08-06T01:25:55;2.15;;;2.03;;
36773;SDS011;22730;51.980;5.934;2023-08-06T01:28:33;1.83;;;1.73;;
36773;SDS011;22730;51.980;5.934;2023-08-06T01:31:18;1.92;;;1.83;;
36773;SDS011;22730;51.980;5.934;2023-08-06T01:33:55;1.63;;;1.52;;
36773;SDS011;22730;51.980;5.934;2023-08-06T01:36:23;1.30;;;1.30;;
36773;SDS011;22730;51.980;5.934;2023-08-06T01:38:55;1.50;;;1.40;;
36773;SDS011;22730;51.980;5.934;2023-08-06T01:43:52;1.88;;;1.77;;
36773;SDS011;22730;51.980;5.934;2023-08-06T01:46:18;2.13;;;2.00;;
36773;SDS011;22730;51.980;5.934;2023-08-06T01:48:44;2.08;;;1.90;;
36773;SDS011;22730;51.980;5.934;2023-08-06T01:51:10;2.35;;;2.17;;
36773;SDS011;22730;51.980;5.934;2023-08-06T01:53:35;2.63;;;2.53;;
36773;SDS011;22730;51.980;5.934;2023-08-06T01:56:01;3.88;;;3.42;;
36773;SDS011;22730;51.980;5.934;2023-08-06T01:58:27;3.15;;;2.95;;
36773;SDS011;22730;51.980;5.934;2023-08-06T02:00:55;3.15;;;2.95;;
36773;SDS011;22730;51.980;5.934;2023-08-06T02:03:23;3.83;;;2.58;;
36773;SDS011;22730;51.980;5.934;2023-08-06T02:05:49;2.75;;;2.55;;
36773;SDS011;22730;51.980;5.934;2023-08-06T02:08:14;2.92;;;2.72;;
36773;SDS011;22730;51.980;5.934;2023-08-06T02:10:40;3.55;;;2.97;;
36773;SDS011;22730;51.980;5.934;2023-08-06T02:13:06;4.32;;;2.55;;
36773;SDS011;22730;51.980;5.934;2023-08-06T02:15:32;3.28;;;3.08;;
36773;SDS011;22730;51.980;5.934;2023-08-06T02:17:58;2.50;;;2.30;;
36773;SDS011;22730;51.980;5.934;2023-08-06T02:20:26;2.28;;;2.17;;
36773;SDS011;22730;51.980;5.934;2023-08-06T02:22:54;2.30;;;2.10;;
36773;SDS011;22730;51.980;5.934;2023-08-06T02:25:23;1.88;;;1.77;;
36773;SDS011;22730;51.980;5.934;2023-08-06T02:27:49;3.17;;;2.55;;
36773;SDS011;22730;51.980;5.934;2023-08-06T02:30:15;2.92;;;2.63;;
36773;SDS011;22730;51.980;5.934;2023-08-06T02:32:44;2.50;;;2.40;;
36773;SDS011;22730;51.980;5.934;2023-08-06T02:35:10;2.50;;;2.30;;
36773;SDS011;22730;51.980;5.934;2023-08-06T02:37:35;2.85;;;2.65;;
36773;SDS011;22730;51.980;5.934;2023-08-06T02:40:01;2.45;;;2.08;;
36773;SDS011;22730;51.980;5.934;2023-08-06T02:42:27;1.98;;;1.88;;
36773;SDS011;22730;51.980;5.934;2023-08-06T02:44:53;2.08;;;1.70;;
36773;SDS011;22730;51.980;5.934;2023-08-06T02:47:22;2.50;;;1.40;;
36773;SDS011;22730;51.980;5.934;2023-08-06T02:49:49;1.80;;;1.70;;
36773;SDS011;22730;51.980;5.934;2023-08-06T02:52:14;2.25;;;2.05;;
36773;SDS011;22730;51.980;5.934;2023-08-06T02:54:43;1.83;;;1.73;;
36773;SDS011;22730;51.980;5.934;2023-08-06T02:57:10;1.80;;;1.70;;
36773;SDS011;22730;51.980;5.934;2023-08-06T02:59:36;2.72;;;1.92;;
36773;SDS011;22730;51.980;5.934;2023-08-06T03:02:09;1.58;;;1.48;;
36773;SDS011;22730;51.980;5.934;2023-08-06T03:04:44;4.20;;;1.80;;
36773;SDS011;22730;51.980;5.934;2023-08-06T03:07:11;1.67;;;1.58;;
36773;SDS011;22730;51.980;5.934;2023-08-06T03:09:46;1.65;;;1.55;;
36773;SDS011;22730;51.980;5.934;2023-08-06T03:12:13;1.52;;;1.42;;
36773;SDS011;22730;51.980;5.934;2023-08-06T03:14:41;2.08;;;1.98;;
36773;SDS011;22730;51.980;5.934;2023-08-06T03:17:08;1.70;;;1.60;;
36773;SDS011;22730;51.980;5.934;2023-08-06T03:19:35;1.92;;;1.60;;
36773;SDS011;22730;51.980;5.934;2023-08-06T03:22:02;1.20;;;1.20;;
36773;SDS011;22730;51.980;5.934;2023-08-06T03:24:33;1.38;;;1.27;;
36773;SDS011;22730;51.980;5.934;2023-08-06T03:26:59;1.45;;;1.42;;
36773;SDS011;22730;51.980;5.934;2023-08-06T03:29:24;1.52;;;1.48;;
36773;SDS011;22730;51.980;5.934;2023-08-06T03:31:51;2.08;;;1.98;;
36773;SDS011;22730;51.980;5.934;2023-08-06T03:34:18;1.38;;;1.33;;
36773;SDS011;22730;51.980;5.934;2023-08-06T03:36:45;1.15;;;1.15;;
36773;SDS011;22730;51.980;5.934;2023-08-06T03:39:10;1.63;;;1.52;;
36773;SDS011;22730;51.980;5.934;2023-08-06T03:41:36;1.30;;;1.30;;
36773;SDS011;22730;51.980;5.934;2023-08-06T03:44:02;1.10;;;1.10;;
36773;SDS011;22730;51.980;5.934;2023-08-06T03:46:29;1.15;;;1.15;;
36773;SDS011;22730;51.980;5.934;2023-08-06T03:49:00;1.35;;;1.35;;
36773;SDS011;22730;51.980;5.934;2023-08-06T03:51:26;1.52;;;1.50;;
36773;SDS011;22730;51.980;5.934;2023-08-06T03:53:52;1.60;;;1.55;;
36773;SDS011;22730;51.980;5.934;2023-08-06T03:56:18;1.42;;;1.25;;
36773;SDS011;22730;51.980;5.934;2023-08-06T03:58:44;1.38;;;1.38;;
36773;SDS011;22730;51.980;5.934;2023-08-06T04:01:10;1.33;;;1.23;;
36773;SDS011;22730;51.980;5.934;2023-08-06T04:03:41;1.23;;;1.23;;
36773;SDS011;22730;51.980;5.934;2023-08-06T04:06:07;1.95;;;1.85;;
36773;SDS011;22730;51.980;5.934;2023-08-06T04:08:32;1.40;;;1.30;;
36773;SDS011;22730;51.980;5.934;2023-08-06T04:10:58;1.75;;;1.65;;
36773;SDS011;22730;51.980;5.934;2023-08-06T04:13:24;1.50;;;1.40;;
36773;SDS011;22730;51.980;5.934;2023-08-06T04:15:52;6.07;;;1.90;;
36773;SDS011;22730;51.980;5.934;2023-08-06T04:18:20;3.60;;;1.50;;
36773;SDS011;22730;51.980;5.934;2023-08-06T04:20:47;4.25;;;1.63;;
36773;SDS011;22730;51.980;5.934;2023-08-06T04:23:14;3.17;;;1.13;;
36773;SDS011;22730;51.980;5.934;2023-08-06T04:25:41;1.60;;;1.50;;
36773;SDS011;22730;51.980;5.934;2023-08-06T04:28:07;2.05;;;1.50;;
36773;SDS011;22730;51.980;5.934;2023-08-06T04:30:33;2.90;;;1.83;;
36773;SDS011;22730;51.980;5.934;2023-08-06T04:33:03;4.85;;;1.55;;
36773;SDS011;22730;51.980;5.934;2023-08-06T04:35:29;1.55;;;1.48;;
36773;SDS011;22730;51.980;5.934;2023-08-06T04:37:55;1.33;;;1.23;;
36773;SDS011;22730;51.980;5.934;2023-08-06T04:40:21;6.05;;;1.60;;
36773;SDS011;22730;51.980;5.934;2023-08-06T04:42:47;1.42;;;1.33;;
36773;SDS011;22730;51.980;5.934;2023-08-06T04:45:13;5.47;;;1.80;;
36773;SDS011;22730;51.980;5.934;2023-08-06T04:47:39;2.33;;;1.70;;
36773;SDS011;22730;51.980;5.934;2023-08-06T04:50:05;3.88;;;1.50;;
36773;SDS011;22730;51.980;5.934;2023-08-06T04:52:31;7.22;;;1.80;;
36773;SDS011;22730;51.980;5.934;2023-08-06T04:54:59;2.78;;;1.40;;
36773;SDS011;22730;51.980;5.934;2023-08-06T04:57:25;3.38;;;1.50;;
36773;SDS011;22730;51.980;5.934;2023-08-06T04:59:51;1.30;;;1.20;;
36773;SDS011;22730;51.980;5.934;2023-08-06T05:02:17;5.60;;;1.52;;
36773;SDS011;22730;51.980;5.934;2023-08-06T05:04:43;1.70;;;1.60;;
36773;SDS011;22730;51.980;5.934;2023-08-06T05:07:11;3.25;;;1.60;;
36773;SDS011;22730;51.980;5.934;2023-08-06T05:09:37;4.90;;;1.70;;
36773;SDS011;22730;51.980;5.934;2023-08-06T05:12:05;2.38;;;1.50;;
36773;SDS011;22730;51.980;5.934;2023-08-06T05:14:34;2.75;;;1.60;;
36773;SDS011;22730;51.980;5.934;2023-08-06T05:16:59;2.20;;;1.65;;
36773;SDS011;22730;51.980;5.934;2023-08-06T05:19:27;2.30;;;1.80;;
36773;SDS011;22730;51.980;5.934;2023-08-06T05:21:53;4.20;;;1.58;;
36773;SDS011;22730;51.980;5.934;2023-08-06T05:24:19;3.10;;;1.60;;
36773;SDS011;22730;51.980;5.934;2023-08-06T05:26:44;1.42;;;1.33;;
36773;SDS011;22730;51.980;5.934;2023-08-06T05:29:12;2.90;;;1.73;;
36773;SDS011;22730;51.980;5.934;2023-08-06T05:31:38;5.15;;;1.80;;
36773;SDS011;22730;51.980;5.934;2023-08-06T05:34:04;1.52;;;1.42;;
36773;SDS011;22730;51.980;5.934;2023-08-06T05:36:30;5.97;;;1.60;;
36773;SDS011;22730;51.980;5.934;2023-08-06T05:38:56;1.52;;;1.42;;
36773;SDS011;22730;51.980;5.934;2023-08-06T05:41:23;1.40;;;1.30;;
36773;SDS011;22730;51.980;5.934;2023-08-06T05:43:49;4.40;;;1.92;;
36773;SDS011;22730;51.980;5.934;2023-08-06T05:46:15;2.15;;;1.38;;
36773;SDS011;22730;51.980;5.934;2023-08-06T05:48:41;1.60;;;1.50;;
36773;SDS011;22730;51.980;5.934;2023-08-06T05:51:09;2.28;;;1.73;;
36773;SDS011;22730;51.980;5.934;2023-08-06T05:53:40;2.00;;;1.90;;
36773;SDS011;22730;51.980;5.934;2023-08-06T05:56:06;2.13;;;1.90;;
36773;SDS011;22730;51.980;5.934;2023-08-06T05:58:32;3.20;;;3.00;;
36773;SDS011;22730;51.980;5.934;2023-08-06T06:00:58;2.90;;;2.70;;
36773;SDS011;22730;51.980;5.934;2023-08-06T06:03:24;3.92;;;3.63;;
36773;SDS011;22730;51.980;5.934;2023-08-06T06:05:52;4.55;;;3.10;;
36773;SDS011;22730;51.980;5.934;2023-08-06T06:08:24;3.50;;;3.30;;
36773;SDS011;22730;51.980;5.934;2023-08-06T06:10:50;2.70;;;2.60;;
36773;SDS011;22730;51.980;5.934;2023-08-06T06:13:19;3.08;;;2.90;;
36773;SDS011;22730;51.980;5.934;2023-08-06T06:15:51;3.90;;;3.60;;
36773;SDS011;22730;51.980;5.934;2023-08-06T06:18:26;3.47;;;3.28;;
36773;SDS011;22730;51.980;5.934;2023-08-06T06:20:52;3.92;;;3.72;;
36773;SDS011;22730;51.980;5.934;2023-08-06T06:23:21;3.78;;;3.58;;
36773;SDS011;22730;51.980;5.934;2023-08-06T06:25:50;4.75;;;4.45;;
36773;SDS011;22730;51.980;5.934;2023-08-06T06:28:21;4.20;;;3.90;;
36773;SDS011;22730;51.980;5.934;2023-08-06T06:30:47;3.83;;;3.63;;
36773;SDS011;22730;51.980;5.934;2023-08-06T06:33:13;5.00;;;4.70;;
36773;SDS011;22730;51.980;5.934;2023-08-06T06:35:42;4.88;;;4.57;;
36773;SDS011;22730;51.980;5.934;2023-08-06T06:38:08;5.15;;;4.85;;
36773;SDS011;22730;51.980;5.934;2023-08-06T06:40:34;5.97;;;5.57;;
36773;SDS011;22730;51.980;5.934;2023-08-06T06:43:02;6.38;;;5.97;;
36773;SDS011;22730;51.980;5.934;2023-08-06T06:45:31;5.45;;;5.05;;
36773;SDS011;22730;51.980;5.934;2023-08-06T06:47:57;6.28;;;5.78;;
36773;SDS011;22730;51.980;5.934;2023-08-06T06:50:23;5.93;;;5.47;;
36773;SDS011;22730;51.980;5.934;2023-08-06T06:52:49;5.10;;;4.70;;
36773;SDS011;22730;51.980;5.934;2023-08-06T06:55:15;4.80;;;4.50;;
36773;SDS011;22730;51.980;5.934;2023-08-06T06:57:40;5.60;;;5.10;;
36773;SDS011;22730;51.980;5.934;2023-08-06T07:00:06;5.72;;;5.32;;
36773;SDS011;22730;51.980;5.934;2023-08-06T07:02:35;5.90;;;5.50;;
36773;SDS011;22730;51.980;5.934;2023-08-06T07:05:00;5.75;;;5.35;;
36773;SDS011;22730;51.980;5.934;2023-08-06T07:07:28;4.65;;;4.35;;
36773;SDS011;22730;51.980;5.934;2023-08-06T07:09:54;4.68;;;4.38;;
36773;SDS011;22730;51.980;5.934;2023-08-06T07:12:20;3.75;;;3.55;;
36773;SDS011;22730;51.980;5.934;2023-08-06T07:14:47;3.90;;;3.70;;
36773;SDS011;22730;51.980;5.934;2023-08-06T07:17:12;3.25;;;3.05;;
36773;SDS011;22730;51.980;5.934;2023-08-06T07:19:38;4.40;;;4.10;;
36773;SDS011;22730;51.980;5.934;2023-08-06T07:22:06;3.80;;;3.60;;
36773;SDS011;22730;51.980;5.934;2023-08-06T07:24:32;3.65;;;3.45;;
36773;SDS011;22730;51.980;5.934;2023-08-06T07:26:58;3.85;;;3.65;;
36773;SDS011;22730;51.980;5.934;2023-08-06T07:29:24;3.67;;;3.45;;
36773;SDS011;22730;51.980;5.934;2023-08-06T07:31:50;3.17;;;3.05;;
36773;SDS011;22730;51.980;5.934;2023-08-06T07:34:18;3.50;;;3.30;;
36773;SDS011;22730;51.980;5.934;2023-08-06T07:36:47;3.67;;;3.47;;
36773;SDS011;22730;51.980;5.934;2023-08-06T07:39:15;4.07;;;3.78;;
36773;SDS011;22730;51.980;5.934;2023-08-06T07:41:42;3.67;;;3.47;;
36773;SDS011;22730;51.980;5.934;2023-08-06T07:44:12;4.60;;;4.30;;
36773;SDS011;22730;51.980;5.934;2023-08-06T07:46:38;3.40;;;3.20;;
36773;SDS011;22730;51.980;5.934;2023-08-06T07:49:04;3.35;;;3.15;;
36773;SDS011;22730;51.980;5.934;2023-08-06T07:51:30;3.10;;;2.92;;
36773;SDS011;22730;51.980;5.934;2023-08-06T07:53:56;3.60;;;3.40;;
36773;SDS011;22730;51.980;5.934;2023-08-06T07:56:21;3.03;;;2.80;;
36773;SDS011;22730;51.980;5.934;2023-08-06T07:58:50;3.50;;;3.30;;
36773;SDS011;22730;51.980;5.934;2023-08-06T08:01:16;3.92;;;3.72;;
36773;SDS011;22730;51.980;5.934;2023-08-06T08:03:41;3.55;;;3.35;;
36773;SDS011;22730;51.980;5.934;2023-08-06T08:06:08;3.60;;;3.40;;
36773;SDS011;22730;51.980;5.934;2023-08-06T08:08:33;3.38;;;3.17;;
36773;SDS011;22730;51.980;5.934;2023-08-06T08:11:06;4.50;;;4.28;;
36773;SDS011;22730;51.980;5.934;2023-08-06T08:13:32;4.50;;;4.20;;
36773;SDS011;22730;51.980;5.934;2023-08-06T08:16:00;4.10;;;3.90;;
36773;SDS011;22730;51.980;5.934;2023-08-06T08:18:26;5.07;;;4.78;;
36773;SDS011;22730;51.980;5.934;2023-08-06T08:20:53;5.28;;;4.97;;
36773;SDS011;22730;51.980;5.934;2023-08-06T08:23:18;3.80;;;3.60;;
36773;SDS011;22730;51.980;5.934;2023-08-06T08:25:44;3.70;;;3.50;;
36773;SDS011;22730;51.980;5.934;2023-08-06T08:28:15;3.78;;;3.58;;
36773;SDS011;22730;51.980;5.934;2023-08-06T08:30:41;3.30;;;3.10;;
36773;SDS011;22730;51.980;5.934;2023-08-06T08:33:07;3.95;;;3.65;;
36773;SDS011;22730;51.980;5.934;2023-08-06T08:35:33;3.47;;;3.28;;
36773;SDS011;22730;51.980;5.934;2023-08-06T08:37:59;4.15;;;3.95;;
36773;SDS011;22730;51.980;5.934;2023-08-06T08:40:27;4.38;;;4.07;;
36773;SDS011;22730;51.980;5.934;2023-08-06T08:42:57;3.85;;;3.65;;
36773;SDS011;22730;51.980;5.934;2023-08-06T08:45:28;3.75;;;3.50;;
36773;SDS011;22730;51.980;5.934;2023-08-06T08:47:57;3.40;;;3.20;;
36773;SDS011;22730;51.980;5.934;2023-08-06T08:50:25;3.60;;;3.35;;
36773;SDS011;22730;51.980;5.934;2023-08-06T08:52:51;3.10;;;2.90;;
36773;SDS011;22730;51.980;5.934;2023-08-06T08:55:17;2.55;;;2.45;;
36773;SDS011;22730;51.980;5.934;2023-08-06T08:57:46;3.30;;;3.10;;
36773;SDS011;22730;51.980;5.934;2023-08-06T09:00:15;2.95;;;2.85;;
36773;SDS011;22730;51.980;5.934;2023-08-06T09:02:45;3.38;;;3.17;;
36773;SDS011;22730;51.980;5.934;2023-08-06T09:05:12;3.30;;;3.10;;
36773;SDS011;22730;51.980;5.934;2023-08-06T09:07:41;4.20;;;3.92;;
36773;SDS011;22730;51.980;5.934;2023-08-06T09:10:16;8.57;;;4.78;;
36773;SDS011;22730;51.980;5.934;2023-08-06T09:12:43;4.82;;;4.53;;
36773;SDS011;22730;51.980;5.934;2023-08-06T09:15:10;4.70;;;4.30;;
36773;SDS011;22730;51.980;5.934;2023-08-06T09:17:36;5.35;;;4.82;;
36773;SDS011;22730;51.980;5.934;2023-08-06T09:20:09;4.38;;;4.07;;
36773;SDS011;22730;51.980;5.934;2023-08-06T09:22:39;4.20;;;3.90;;
36773;SDS011;22730;51.980;5.934;2023-08-06T09:25:06;5.13;;;4.72;;
36773;SDS011;22730;51.980;5.934;2023-08-06T09:27:38;5.05;;;4.57;;
36773;SDS011;22730;51.980;5.934;2023-08-06T09:30:04;5.07;;;4.68;;
36773;SDS011;22730;51.980;5.934;2023-08-06T09:32:46;4.88;;;4.45;;
36773;SDS011;22730;51.980;5.934;2023-08-06T09:35:16;5.43;;;5.03;;
36773;SDS011;22730;51.980;5.934;2023-08-06T09:37:42;5.53;;;5.13;;
36773;SDS011;22730;51.980;5.934;2023-08-06T09:42:58;5.13;;;4.63;;
36773;SDS011;22730;51.980;5.934;2023-08-06T09:45:57;4.78;;;4.47;;
36773;SDS011;22730;51.980;5.934;2023-08-06T09:48:16;4.35;;;4.05;;
36773;SDS011;22730;51.980;5.934;2023-08-06T09:50:42;4.88;;;4.57;;
36773;SDS011;22730;51.980;5.934;2023-08-06T09:53:08;4.00;;;3.80;;
36773;SDS011;22730;51.980;5.934;2023-08-06T09:55:36;4.22;;;4.03;;
36773;SDS011;22730;51.980;5.934;2023-08-06T09:58:03;4.65;;;4.35;;
36773;SDS011;22730;51.980;5.934;2023-08-06T10:00:30;4.07;;;3.80;;
36773;SDS011;22730;51.980;5.934;2023-08-06T10:02:59;4.20;;;3.90;;
36773;SDS011;22730;51.980;5.934;2023-08-06T10:05:26;5.20;;;4.80;;
36773;SDS011;22730;51.980;5.934;2023-08-06T10:08:03;4.80;;;4.40;;
36773;SDS011;22730;51.980;5.934;2023-08-06T10:10:32;4.63;;;4.32;;
36773;SDS011;22730;51.980;5.934;2023-08-06T10:13:01;4.40;;;4.13;;
36773;SDS011;22730;51.980;5.934;2023-08-06T10:15:31;3.97;;;3.67;;
36773;SDS011;22730;51.980;5.934;2023-08-06T10:17:58;3.75;;;3.55;;
36773;SDS011;22730;51.980;5.934;2023-08-06T10:20:24;4.30;;;4.00;;
36773;SDS011;22730;51.980;5.934;2023-08-06T10:23:06;5.75;;;5.35;;
36773;SDS011;22730;51.980;5.934;2023-08-06T10:25:35;8.40;;;7.70;;
36773;SDS011;22730;51.980;5.934;2023-08-06T10:28:07;11.32;;;10.35;;
36773;SDS011;22730;51.980;5.934;2023-08-06T10:30:40;9.70;;;8.80;;
36773;SDS011;22730;51.980;5.934;2023-08-06T10:33:10;8.98;;;8.27;;
36773;SDS011;22730;51.980;5.934;2023-08-06T10:38:05;8.55;;;7.88;;
36773;SDS011;22730;51.980;5.934;2023-08-06T10:40:42;8.48;;;7.85;;
36773;SDS011;22730;51.980;5.934;2023-08-06T10:43:29;7.57;;;7.07;;
36773;SDS011;22730;51.980;5.934;2023-08-06T10:45:58;7.38;;;6.78;;
36773;SDS011;22730;51.980;5.934;2023-08-06T10:48:31;6.75;;;6.25;;
36773;SDS011;22730;51.980;5.934;2023-08-06T10:51:08;4.60;;;4.30;;
36773;SDS011;22730;51.980;5.934;2023-08-06T10:53:35;4.18;;;3.88;;
36773;SDS011;22730;51.980;5.934;2023-08-06T10:56:02;3.30;;;3.10;;
36773;SDS011;22730;51.980;5.934;2023-08-06T10:58:37;3.80;;;2.80;;
36773;SDS011;22730;51.980;5.934;2023-08-06T11:01:03;2.17;;;1.98;;
36773;SDS011;22730;51.980;5.934;2023-08-06T11:03:31;2.30;;;2.03;;
36773;SDS011;22730;51.980;5.934;2023-08-06T11:06:01;1.75;;;1.65;;
36773;SDS011;22730;51.980;5.934;2023-08-06T11:08:34;1.60;;;1.50;;
36773;SDS011;22730;51.980;5.934;2023-08-06T11:11:10;1.70;;;1.60;;
36773;SDS011;22730;51.980;5.934;2023-08-06T11:13:47;1.70;;;1.60;;
36773;SDS011;22730;51.980;5.934;2023-08-06T11:16:14;1.98;;;1.48;;
36773;SDS011;22730;51.980;5.934;2023-08-06T11:18:42;1.52;;;1.42;;
36773;SDS011;22730;51.980;5.934;2023-08-06T11:21:07;1.60;;;1.10;;
36773;SDS011;22730;51.980;5.934;2023-08-06T11:23:33;1.42;;;1.33;;
36773;SDS011;22730;51.980;5.934;2023-08-06T11:26:00;1.50;;;1.40;;
36773;SDS011;22730;51.980;5.934;2023-08-06T11:28:26;2.88;;;2.00;;
36773;SDS011;22730;51.980;5.934;2023-08-06T11:30:52;2.85;;;2.65;;
36773;SDS011;22730;51.980;5.934;2023-08-06T11:33:23;3.20;;;2.97;;
36773;SDS011;22730;51.980;5.934;2023-08-06T11:35:57;3.05;;;2.78;;
36773;SDS011;22730;51.980;5.934;2023-08-06T11:38:25;6.85;;;5.57;;
36773;SDS011;22730;51.980;5.934;2023-08-06T11:40:52;11.38;;;10.18;;
36773;SDS011;22730;51.980;5.934;2023-08-06T11:43:18;15.82;;;13.82;;
36773;SDS011;22730;51.980;5.934;2023-08-06T11:45:49;14.77;;;12.10;;
36773;SDS011;22730;51.980;5.934;2023-08-06T11:48:19;11.18;;;9.90;;
36773;SDS011;22730;51.980;5.934;2023-08-06T11:50:45;7.45;;;6.75;;
36773;SDS011;22730;51.980;5.934;2023-08-06T11:53:14;6.90;;;6.30;;
36773;SDS011;22730;51.980;5.934;2023-08-06T11:55:40;5.97;;;5.47;;
36773;SDS011;22730;51.980;5.934;2023-08-06T11:58:09;4.43;;;4.13;;
36773;SDS011;22730;51.980;5.934;2023-08-06T12:00:36;4.47;;;4.07;;
36773;SDS011;22730;51.980;5.934;2023-08-06T12:03:02;5.50;;;5.00;;
36773;SDS011;22730;51.980;5.934;2023-08-06T12:05:30;5.85;;;5.25;;
36773;SDS011;22730;51.980;5.934;2023-08-06T12:07:59;7.55;;;6.72;;
36773;SDS011;22730;51.980;5.934;2023-08-06T12:10:25;6.60;;;6.00;;
36773;SDS011;22730;51.980;5.934;2023-08-06T12:12:53;7.13;;;6.53;;
36773;SDS011;22730;51.980;5.934;2023-08-06T12:15:19;7.95;;;7.20;;
36773;SDS011;22730;51.980;5.934;2023-08-06T12:17:45;7.40;;;6.80;;
36773;SDS011;22730;51.980;5.934;2023-08-06T12:20:12;6.85;;;6.30;;
36773;SDS011;22730;51.980;5.934;2023-08-06T12:22:38;8.20;;;7.38;;
36773;SDS011;22730;51.980;5.934;2023-08-06T12:25:08;6.65;;;6.05;;
36773;SDS011;22730;51.980;5.934;2023-08-06T12:30:03;8.43;;;7.72;;
36773;SDS011;22730;51.980;5.934;2023-08-06T12:32:30;9.68;;;8.75;;
36773;SDS011;22730;51.980;5.934;2023-08-06T12:34:56;11.30;;;10.20;;
36773;SDS011;22730;51.980;5.934;2023-08-06T12:37:23;12.73;;;11.45;;
36773;SDS011;22730;51.980;5.934;2023-08-06T12:39:50;11.30;;;10.27;;
36773;SDS011;22730;51.980;5.934;2023-08-06T12:42:16;12.75;;;11.50;;
36773;SDS011;22730;51.980;5.934;2023-08-06T12:44:42;12.00;;;10.98;;
36773;SDS011;22730;51.980;5.934;2023-08-06T12:47:08;11.73;;;10.63;;
36773;SDS011;22730;51.980;5.934;2023-08-06T12:49:37;10.70;;;9.75;;
36773;SDS011;22730;51.980;5.934;2023-08-06T12:52:03;11.43;;;10.43;;
36773;SDS011;22730;51.980;5.934;2023-08-06T12:54:31;11.02;;;9.98;;
36773;SDS011;22730;51.980;5.934;2023-08-06T12:57:06;9.40;;;8.57;;
36773;SDS011;22730;51.980;5.934;2023-08-06T12:59:32;9.88;;;8.93;;
36773;SDS011;22730;51.980;5.934;2023-08-06T13:01:59;9.40;;;8.60;;
36773;SDS011;22730;51.980;5.934;2023-08-06T13:04:25;7.57;;;6.90;;
36773;SDS011;22730;51.980;5.934;2023-08-06T13:06:51;9.18;;;8.38;;
36773;SDS011;22730;51.980;5.934;2023-08-06T13:09:22;9.43;;;8.52;;
36773;SDS011;22730;51.980;5.934;2023-08-06T13:11:48;20.42;;;16.05;;
36773;SDS011;22730;51.980;5.934;2023-08-06T13:14:15;36.28;;;23.83;;
36773;SDS011;22730;51.980;5.934;2023-08-06T13:16:41;38.08;;;25.50;;
36773;SDS011;22730;51.980;5.934;2023-08-06T13:19:09;39.70;;;25.50;;
36773;SDS011;22730;51.980;5.934;2023-08-06T13:24:10;33.05;;;20.98;;
36773;SDS011;22730;51.980;5.934;2023-08-06T13:26:36;27.75;;;20.13;;
36773;SDS011;22730;51.980;5.934;2023-08-06T13:29:02;25.80;;;18.45;;
36773;SDS011;22730;51.980;5.934;2023-08-06T13:31:28;25.55;;;17.42;;
36773;SDS011;22730;51.980;5.934;2023-08-06T13:33:54;20.75;;;14.52;;
36773;SDS011;22730;51.980;5.934;2023-08-06T13:36:23;19.38;;;14.35;;
36773;SDS011;22730;51.980;5.934;2023-08-06T13:38:49;19.35;;;14.30;;
36773;SDS011;22730;51.980;5.934;2023-08-06T13:41:15;17.63;;;13.75;;
36773;SDS011;22730;51.980;5.934;2023-08-06T13:43:42;17.67;;;12.18;;
36773;SDS011;22730;51.980;5.934;2023-08-06T13:46:09;20.35;;;14.85;;
36773;SDS011;22730;51.980;5.934;2023-08-06T13:48:39;18.85;;;14.35;;
36773;SDS011;22730;51.980;5.934;2023-08-06T13:51:05;18.95;;;15.00;;
36773;SDS011;22730;51.980;5.934;2023-08-06T13:53:31;20.75;;;16.17;;
36773;SDS011;22730;51.980;5.934;2023-08-06T13:55:57;22.17;;;16.10;;
36773;SDS011;22730;51.980;5.934;2023-08-06T13:58:23;19.48;;;14.88;;
36773;SDS011;22730;51.980;5.934;2023-08-06T14:00:50;19.23;;;15.05;;
36773;SDS011;22730;51.980;5.934;2023-08-06T14:03:18;20.30;;;14.93;;
36773;SDS011;22730;51.980;5.934;2023-08-06T14:05:44;15.68;;;12.70;;
36773;SDS011;22730;51.980;5.934;2023-08-06T14:08:10;15.63;;;13.10;;
36773;SDS011;22730;51.980;5.934;2023-08-06T14:10:35;15.18;;;11.32;;
36773;SDS011;22730;51.980;5.934;2023-08-06T14:13:01;16.55;;;11.38;;
36773;SDS011;22730;51.980;5.934;2023-08-06T14:15:27;12.85;;;10.57;;
36773;SDS011;22730;51.980;5.934;2023-08-06T14:17:54;12.95;;;10.05;;
36773;SDS011;22730;51.980;5.934;2023-08-06T14:20:19;9.85;;;8.85;;
36773;SDS011;22730;51.980;5.934;2023-08-06T14:22:45;10.27;;;8.82;;
36773;SDS011;22730;51.980;5.934;2023-08-06T14:25:11;10.60;;;9.00;;
36773;SDS011;22730;51.980;5.934;2023-08-06T14:27:37;9.43;;;8.20;;
36773;SDS011;22730;51.980;5.934;2023-08-06T14:30:05;10.27;;;7.85;;
36773;SDS011;22730;51.980;5.934;2023-08-06T14:32:31;10.75;;;8.88;;
36773;SDS011;22730;51.980;5.934;2023-08-06T14:35:00;9.77;;;7.90;;
36773;SDS011;22730;51.980;5.934;2023-08-06T14:37:26;8.90;;;7.60;;
36773;SDS011;22730;51.980;5.934;2023-08-06T14:39:52;8.55;;;7.38;;
36773;SDS011;22730;51.980;5.934;2023-08-06T14:42:17;7.60;;;6.60;;
36773;SDS011;22730;51.980;5.934;2023-08-06T14:44:43;7.60;;;6.80;;
36773;SDS011;22730;51.980;5.934;2023-08-06T14:47:09;9.02;;;7.03;;
36773;SDS011;22730;51.980;5.934;2023-08-06T14:49:35;9.57;;;7.57;;
36773;SDS011;22730;51.980;5.934;2023-08-06T14:52:02;7.28;;;6.57;;
36773;SDS011;22730;51.980;5.934;2023-08-06T14:54:28;7.88;;;7.05;;
36773;SDS011;22730;51.980;5.934;2023-08-06T14:56:54;6.68;;;5.97;;
36773;SDS011;22730;51.980;5.934;2023-08-06T14:59:20;6.75;;;6.00;;
36773;SDS011;22730;51.980;5.934;2023-08-06T15:01:46;10.15;;;8.95;;
36773;SDS011;22730;51.980;5.934;2023-08-06T15:04:12;15.80;;;11.30;;
36773;SDS011;22730;51.980;5.934;2023-08-06T15:06:37;18.67;;;14.70;;
36773;SDS011;22730;51.980;5.934;2023-08-06T15:09:03;23.08;;;17.38;;